| time (UTC) | temp C | wind direction | speed KPH | gust KPH | rain 1hr cm | rain 24hr cm | rain mn cm | humidity % | barometer mb |
| 20260509081928 | 18 | 130 | 22.5 | 0.0 | 0.00 | 0.00 | 0.00 | 73 | 1015.0 |
| 20260509080400 | 18 | 130 | 22.5 | 0.0 | 0.00 | 0.00 | 0.00 | 73 | 1015.0 |
| 20260509074900 | 16 | 110 | 17.7 | 0.0 | 0.00 | 0.00 | 0.00 | 83 | 1015.0 |
| 20260509073400 | 16 | 110 | 17.7 | 0.0 | 0.00 | 0.00 | 0.00 | 83 | 1015.0 |
| 20260509071859 | 16 | 110 | 17.7 | 0.0 | 0.00 | 0.00 | 0.00 | 83 | 1015.0 |
| 20260509070400 | 16 | 110 | 17.7 | 0.0 | 0.00 | 0.00 | 0.00 | 83 | 1015.0 |
| 20260509064856 | 13 | 110 | 17.7 | 0.0 | 0.00 | 0.00 | 0.00 | 94 | 1015.0 |
| 20260509063400 | 13 | 110 | 17.7 | 0.0 | 0.00 | 0.00 | 0.00 | 94 | 1015.0 |
| 20260509061853 | 13 | 110 | 17.7 | 0.0 | 0.00 | 0.00 | 0.00 | 94 | 1015.0 |
| 20260509060359 | -17 | 0.0 | 0.0 | 0.00 | 0.00 | 0.00 | |||
| 20260509054853 | 12 | 110 | 17.7 | 0.0 | 0.00 | 0.00 | 0.00 | 94 | 1015.0 |
| 20260509053359 | 12 | 110 | 17.7 | 0.0 | 0.00 | 0.00 | 0.00 | 94 | 1015.0 |
| 20260509051857 | 12 | 110 | 17.7 | 0.0 | 0.00 | 0.00 | 0.00 | 94 | 1015.0 |
| 20260509050359 | 12 | 110 | 17.7 | 0.0 | 0.00 | 0.00 | 0.00 | 94 | 1015.0 |
| 20260509044857 | 12 | 100 | 22.5 | 0.0 | 0.00 | 0.00 | 0.00 | 100 | 1015.0 |
| 20260509043400 | 12 | 100 | 22.5 | 0.0 | 0.00 | 0.00 | 0.00 | 100 | 1015.0 |
| 20260509041854 | 12 | 100 | 22.5 | 0.0 | 0.00 | 0.00 | 0.00 | 100 | 1015.0 |
| 20260509040400 | 12 | 100 | 22.5 | 0.0 | 0.00 | 0.00 | 0.00 | 100 | 1015.0 |
| 20260509034857 | 12 | 80 | 9.7 | 0.0 | 0.00 | 0.00 | 0.00 | 100 | 1014.0 |
| 20260509033359 | 12 | 80 | 9.7 | 0.0 | 0.00 | 0.00 | 0.00 | 100 | 1014.0 |
| 20260509031854 | 12 | 80 | 9.7 | 0.0 | 0.00 | 0.00 | 0.00 | 100 | 1014.0 |
| 20260509030400 | 12 | 80 | 9.7 | 0.0 | 0.00 | 0.00 | 0.00 | 100 | 1014.0 |
| 20260509024850 | 12 | 150 | 11.3 | 0.0 | 0.00 | 0.00 | 0.00 | 100 | 1016.0 |
| 20260509023356 | 12 | 150 | 11.3 | 0.0 | 0.00 | 0.00 | 0.00 | 100 | 1016.0 |
| 20260509021856 | -17 | 0.0 | 0.0 | 0.00 | 0.00 | 0.00 | |||
| 20260509020400 | -17 | 0.0 | 0.0 | 0.00 | 0.00 | 0.00 | |||
| 20260509014857 | 12 | 140 | 14.5 | 0.0 | 0.00 | 0.00 | 0.00 | 100 | 1015.0 |
| 20260509013357 | 12 | 140 | 14.5 | 0.0 | 0.00 | 0.00 | 0.00 | 100 | 1015.0 |
| 20260509011857 | 12 | 140 | 14.5 | 0.0 | 0.00 | 0.00 | 0.00 | 100 | 1015.0 |
| 20260509010359 | 12 | 140 | 14.5 | 0.0 | 0.00 | 0.00 | 0.00 | 100 | 1015.0 |
| 20260509004859 | 12 | 140 | 14.5 | 0.0 | 0.00 | 0.00 | 0.00 | 100 | 1015.0 |
| 20260509003359 | 12 | 160 | 14.5 | 0.0 | 0.00 | 0.00 | 0.00 | 94 | 1015.0 |
| 20260509001857 | 12 | 160 | 14.5 | 0.0 | 0.00 | 0.00 | 0.00 | 94 | 1015.0 |
| 20260509000359 | 12 | 160 | 14.5 | 0.0 | 0.00 | 0.00 | 0.00 | 94 | 1015.0 |
| 20260508234856 | 12 | 120 | 17.7 | 0.0 | 0.00 | 0.00 | 0.00 | 100 | 1015.0 |
| 20260508233359 | 12 | 120 | 17.7 | 0.0 | 0.00 | 0.00 | 0.00 | 100 | 1015.0 |
| 20260508231857 | 12 | 120 | 17.7 | 0.0 | 0.00 | 0.00 | 0.00 | 100 | 1015.0 |
| 20260508230400 | -17 | 0.0 | 0.0 | 0.00 | 0.00 | 0.00 | |||
| 20260508224856 | 12 | 120 | 22.5 | 0.0 | 0.00 | 0.00 | 0.00 | 100 | 1015.0 |
| 20260508223400 | 12 | 120 | 22.5 | 0.0 | 0.00 | 0.00 | 0.00 | 100 | 1015.0 |
| 20260508221857 | 12 | 120 | 22.5 | 0.0 | 0.00 | 0.00 | 0.00 | 100 | 1015.0 |
| 20260508220400 | 12 | 120 | 22.5 | 0.0 | 0.00 | 0.00 | 0.00 | 100 | 1015.0 |
| 20260508214859 | 12 | 120 | 22.5 | 0.0 | 0.00 | 0.00 | 0.00 | 100 | 1015.0 |
| 20260508213359 | 12 | 120 | 25.7 | 0.0 | 0.00 | 0.00 | 0.00 | 94 | 1015.0 |
| 20260508211856 | 12 | 120 | 25.7 | 0.0 | 0.00 | 0.00 | 0.00 | 94 | 1015.0 |
| 20260508210359 | 12 | 120 | 25.7 | 0.0 | 0.00 | 0.00 | 0.00 | 94 | 1015.0 |
| 20260508204853 | -17 | 0.0 | 0.0 | 0.00 | 0.00 | 0.00 | |||
| 20260508203357 | -17 | 0.0 | 0.0 | 0.00 | 0.00 | 0.00 | |||
| 20260508201854 | -17 | 0.0 | 0.0 | 0.00 | 0.00 | 0.00 | |||
| 20260508200356 | -17 | 0.0 | 0.0 | 0.00 | 0.00 | 0.00 | |||
| 20260508194854 | 12 | 110 | 24.1 | 0.0 | 0.00 | 0.00 | 0.00 | 94 | 1015.0 |
| 20260508193400 | 12 | 110 | 24.1 | 0.0 | 0.00 | 0.00 | 0.00 | 94 | 1015.0 |
| 20260508191857 | 12 | 110 | 24.1 | 0.0 | 0.00 | 0.00 | 0.00 | 94 | 1015.0 |
| 20260508190400 | 12 | 110 | 24.1 | 0.0 | 0.00 | 0.00 | 0.00 | 94 | 1015.0 |
| 20260508184859 | 13 | 110 | 25.7 | 0.0 | 0.00 | 0.00 | 0.00 | 88 | 1014.0 |
| 20260508183400 | 13 | 110 | 25.7 | 0.0 | 0.00 | 0.00 | 0.00 | 88 | 1014.0 |
| 20260508181903 | 13 | 110 | 25.7 | 0.0 | 0.00 | 0.00 | 0.00 | 88 | 1014.0 |
| 20260508180359 | 13 | 110 | 25.7 | 0.0 | 0.00 | 0.00 | 0.00 | 88 | 1014.0 |
| 20260508174857 | 17 | 110 | 17.7 | 0.0 | 0.00 | 0.00 | 0.00 | 77 | 1014.0 |
| 20260508173359 | 17 | 110 | 17.7 | 0.0 | 0.00 | 0.00 | 0.00 | 77 | 1014.0 |
| 20260508171900 | 17 | 110 | 17.7 | 0.0 | 0.00 | 0.00 | 0.00 | 77 | 1014.0 |
| 20260508170400 | 17 | 110 | 17.7 | 0.0 | 0.00 | 0.00 | 0.00 | 77 | 1014.0 |
| 20260508164900 | 18 | 120 | 27.4 | 0.0 | 0.00 | 0.00 | 0.00 | 73 | 1014.0 |
| 20260508163400 | 18 | 120 | 27.4 | 0.0 | 0.00 | 0.00 | 0.00 | 73 | 1014.0 |
| 20260508161859 | 18 | 120 | 27.4 | 0.0 | 0.00 | 0.00 | 0.00 | 73 | 1014.0 |
| 20260508160359 | 18 | 120 | 27.4 | 0.0 | 0.00 | 0.00 | 0.00 | 73 | 1014.0 |
| 20260508154900 | 21 | 110 | 25.7 | 0.0 | 0.00 | 0.00 | 0.00 | 73 | 1014.0 |
| 20260508153359 | 21 | 110 | 25.7 | 0.0 | 0.00 | 0.00 | 0.00 | 73 | 1014.0 |
| 20260508151900 | 21 | 110 | 25.7 | 0.0 | 0.00 | 0.00 | 0.00 | 73 | 1014.0 |
| 20260508150400 | 21 | 110 | 25.7 | 0.0 | 0.00 | 0.00 | 0.00 | 73 | 1014.0 |
| 20260508144900 | 25 | 60 | 9.7 | 0.0 | 0.00 | 0.00 | 0.00 | 54 | 1014.0 |
| 20260508143359 | 25 | 60 | 9.7 | 0.0 | 0.00 | 0.00 | 0.00 | 54 | 1014.0 |
| 20260508141900 | 25 | 60 | 9.7 | 0.0 | 0.00 | 0.00 | 0.00 | 54 | 1014.0 |
| 20260508140359 | 25 | 60 | 9.7 | 0.0 | 0.00 | 0.00 | 0.00 | 54 | 1014.0 |
| 20260508135023 | -17 | 0.0 | 0.0 | 0.00 | 0.00 | 0.00 | |||
| 20260508133356 | 25 | 60 | 9.7 | 0.0 | 0.00 | 0.00 | 0.00 | 54 | 1015.0 |
| 20260508131900 | 25 | 60 | 9.7 | 0.0 | 0.00 | 0.00 | 0.00 | 54 | 1015.0 |
| 20260508130400 | 25 | 60 | 9.7 | 0.0 | 0.00 | 0.00 | 0.00 | 54 | 1015.0 |
| 20260508124859 | 23 | 120 | 12.9 | 0.0 | 0.00 | 0.00 | 0.00 | 57 | 1015.0 |
| 20260508123359 | 23 | 120 | 12.9 | 0.0 | 0.00 | 0.00 | 0.00 | 57 | 1015.0 |
| 20260508121907 | 23 | 120 | 12.9 | 0.0 | 0.00 | 0.00 | 0.00 | 57 | 1015.0 |
| 20260508120359 | 23 | 120 | 12.9 | 0.0 | 0.00 | 0.00 | 0.00 | 57 | 1015.0 |
| 20260508114859 | 22 | 140 | 11.3 | 0.0 | 0.00 | 0.00 | 0.00 | 61 | 1016.0 |
| 20260508113359 | 22 | 140 | 11.3 | 0.0 | 0.00 | 0.00 | 0.00 | 61 | 1016.0 |
| 20260508111900 | 22 | 140 | 11.3 | 0.0 | 0.00 | 0.00 | 0.00 | 61 | 1016.0 |
| 20260508110359 | 22 | 140 | 11.3 | 0.0 | 0.00 | 0.00 | 0.00 | 61 | 1016.0 |
| 20260508104858 | 22 | 140 | 11.3 | 0.0 | 0.00 | 0.00 | 0.00 | 61 | 1016.0 |
| 20260508103422 | -17 | 0.0 | 0.0 | 0.00 | 0.00 | 0.00 | |||
| 20260508101900 | 22 | 140 | 11.3 | 0.0 | 0.00 | 0.00 | 0.00 | 61 | 1016.0 |
| 20260508100400 | 22 | 140 | 11.3 | 0.0 | 0.00 | 0.00 | 0.00 | 61 | 1016.0 |
| 20260508094900 | 20 | 120 | 14.5 | 0.0 | 0.00 | 0.00 | 0.00 | 69 | 1016.0 |
| 20260508093400 | 20 | 120 | 14.5 | 0.0 | 0.00 | 0.00 | 0.00 | 69 | 1016.0 |
| 20260508091859 | 20 | 120 | 14.5 | 0.0 | 0.00 | 0.00 | 0.00 | 69 | 1016.0 |
| 20260508090359 | 20 | 120 | 14.5 | 0.0 | 0.00 | 0.00 | 0.00 | 69 | 1016.0 |
| 20260508084859 | 16 | 130 | 11.3 | 0.0 | 0.00 | 0.00 | 0.00 | 77 | 1017.0 |
| 20260508083359 | 16 | 130 | 11.3 | 0.0 | 0.00 | 0.00 | 0.00 | 77 | 1017.0 |